Time;durP1;ratioP1;P1;durP2;ratioP2;P2;SDS_P1;SDS_P2;PMS_P1;PMS_P2;Temp;Humidity;BMP_temperature;BMP_pressure;BME280_temperature;BME280_humidity;BME280_pressure;Samples;Min_cycle;Max_cycle;Signal;HPM_P1;HPM_P2
2023/12/14 00:01:13;;;;;;;1999.90;999.90;;;;;;;;;;5072104;28;20055;-88
2023/12/14 00:03:40;;;;;;;1999.90;999.90;;;;;;;;;;5078943;28;20045;-90
2023/12/14 00:06:08;;;;;;;1999.90;999.90;;;;;;;;;;5075271;28;20090;-90
2023/12/14 00:08:36;;;;;;;1999.90;999.90;;;;;;;;;;5056705;28;20053;-89
2023/12/14 00:11:04;;;;;;;1999.90;999.90;;;;;;;;;;5058880;28;20048;-88
2023/12/14 00:13:31;;;;;;;1999.90;999.90;;;;;;;;;;5092505;28;20051;-88
2023/12/14 00:15:57;;;;;;;1999.90;999.90;;;;;;;;;;5062820;28;20048;-89
2023/12/14 00:18:24;;;;;;;1999.90;999.90;;;;;;;;;;5062366;28;20049;-89
2023/12/14 00:20:51;;;;;;;1999.90;999.90;;;;;;;;;;5068239;28;20052;-89
2023/12/14 00:23:17;;;;;;;1999.90;999.90;;;;;;;;;;5070397;28;20679;-88
2023/12/14 00:25:45;;;;;;;1999.90;999.90;;;;;;;;;;5057496;28;20049;-91
2023/12/14 00:28:12;;;;;;;1999.90;999.90;;;;;;;;;;5065055;28;20044;-89
2023/12/14 00:30:38;;;;;;;1999.90;999.90;;;;;;;;;;5069018;28;20052;-88
2023/12/14 00:33:05;;;;;;;1999.90;999.90;;;;;;;;;;5060865;28;20052;-88
2023/12/14 00:35:31;;;;;;;1999.90;999.90;;;;;;;;;;5061252;28;20139;-88
2023/12/14 00:37:58;;;;;;;1999.90;999.90;;;;;;;;;;5069965;28;20072;-89
2023/12/14 00:40:25;;;;;;;1999.90;999.90;;;;;;;;;;5059408;28;20049;-88
2023/12/14 00:42:52;;;;;;;1999.90;999.90;;;;;;;;;;5059259;28;20042;-88
2023/12/14 00:45:19;;;;;;;1999.90;999.90;;;;;;;;;;5066684;28;20042;-88
2023/12/14 00:47:46;;;;;;;1999.90;999.90;;;;;;;;;;5077991;28;20048;-89
2023/12/14 00:50:12;;;;;;;1999.90;999.90;;;;;;;;;;5055680;28;20481;-88
2023/12/14 00:52:39;;;;;;;1999.90;999.90;;;;;;;;;;5062311;28;20492;-89
2023/12/14 00:55:06;;;;;;;1999.90;999.90;;;;;;;;;;5058052;28;20041;-89
2023/12/14 00:57:33;;;;;;;1999.90;999.90;;;;;;;;;;5059861;28;20473;-88
2023/12/14 01:00:00;;;;;;;1999.90;999.90;;;;;;;;;;5065858;28;20154;-88
2023/12/14 01:02:27;;;;;;;1999.90;999.90;;;;;;;;;;5083094;28;20040;-89
2023/12/14 01:04:54;;;;;;;1999.90;999.90;;;;;;;;;;5068082;28;20048;-89
2023/12/14 01:07:20;;;;;;;1999.90;999.90;;;;;;;;;;5067147;28;20056;-88
2023/12/14 01:09:47;;;;;;;1999.90;999.90;;;;;;;;;;5071194;28;20061;-89
2023/12/14 01:12:13;;;;;;;1999.90;999.90;;;;;;;;;;5058674;28;20056;-89
2023/12/14 01:14:40;;;;;;;1999.90;999.90;;;;;;;;;;5058887;28;20402;-88
2023/12/14 01:17:08;;;;;;;1999.90;999.90;;;;;;;;;;5054405;28;20596;-88
2023/12/14 01:19:34;;;;;;;1999.90;999.90;;;;;;;;;;5067372;28;20045;-88
2023/12/14 01:22:01;;;;;;;1999.90;999.90;;;;;;;;;;5059009;28;20058;-89
2023/12/14 01:24:27;;;;;;;1999.90;999.90;;;;;;;;;;5064681;28;20060;-89
2023/12/14 01:26:54;;;;;;;1999.90;999.90;;;;;;;;;;5065607;28;20045;-90
2023/12/14 01:29:20;;;;;;;1999.90;999.90;;;;;;;;;;5070235;28;20060;-89
2023/12/14 01:31:47;;;;;;;1999.90;999.90;;;;;;;;;;5073174;28;20584;-89
2023/12/14 01:34:15;;;;;;;1999.90;999.90;;;;;;;;;;5068593;28;20041;-89
2023/12/14 01:36:42;;;;;;;1999.90;999.90;;;;;;;;;;5077700;28;20044;-89
2023/12/14 01:39:08;;;;;;;1999.90;999.90;;;;;;;;;;5063314;28;20051;-88
2023/12/14 01:41:40;;;;;;;1999.90;999.90;;;;;;;;;;5073380;28;20049;-88
2023/12/14 01:44:07;;;;;;;1999.90;999.90;;;;;;;;;;5061331;28;20045;-89
2023/12/14 01:46:33;;;;;;;1999.90;999.90;;;;;;;;;;5074068;28;20143;-88
2023/12/14 01:49:00;;;;;;;1999.90;999.90;;;;;;;;;;5074570;28;20052;-88
2023/12/14 01:51:27;;;;;;;1999.90;999.90;;;;;;;;;;5072466;28;20055;-89
2023/12/14 01:53:54;;;;;;;1999.90;999.90;;;;;;;;;;5056949;28;20051;-89
2023/12/14 01:56:20;;;;;;;1999.90;999.90;;;;;;;;;;5055785;28;20060;-89
2023/12/14 01:58:47;;;;;;;1999.90;999.90;;;;;;;;;;5056442;28;20421;-87
2023/12/14 02:01:19;;;;;;;1999.90;999.90;;;;;;;;;;5076298;28;20056;-89
2023/12/14 02:03:46;;;;;;;1999.90;999.90;;;;;;;;;;5072237;28;20048;-90
2023/12/14 02:06:12;;;;;;;1999.90;999.90;;;;;;;;;;5072788;28;20044;-89
2023/12/14 02:08:40;;;;;;;1999.90;999.90;;;;;;;;;;5066003;28;20496;-89
2023/12/14 02:11:07;;;;;;;1999.90;999.90;;;;;;;;;;5076977;28;20051;-89
2023/12/14 02:13:33;;;;;;;1999.90;999.90;;;;;;;;;;5061771;28;20052;-88
2023/12/14 02:16:00;;;;;;;1999.90;999.90;;;;;;;;;;5063883;28;20464;-90
2023/12/14 02:18:26;;;;;;;1999.90;999.90;;;;;;;;;;5065374;28;20045;-89
2023/12/14 02:20:53;;;;;;;1999.90;999.90;;;;;;;;;;5056129;28;20049;-91
2023/12/14 02:23:21;;;;;;;1999.90;999.90;;;;;;;;;;5056552;28;20049;-90
2023/12/14 02:25:48;;;;;;;1999.90;999.90;;;;;;;;;;5071553;28;20147;-88
2023/12/14 02:28:14;;;;;;;1999.90;999.90;;;;;;;;;;5075593;28;20535;-90
2023/12/14 02:30:41;;;;;;;1999.90;999.90;;;;;;;;;;5072076;28;20136;-88
2023/12/14 02:33:07;;;;;;;1999.90;999.90;;;;;;;;;;5071462;28;20055;-89
2023/12/14 02:35:34;;;;;;;1999.90;999.90;;;;;;;;;;5074058;28;20056;-88
2023/12/14 02:38:00;;;;;;;1999.90;999.90;;;;;;;;;;5070547;28;20052;-88
2023/12/14 02:40:53;;;;;;;1999.90;999.90;;;;;;;;;;5071168;28;20055;-88
2023/12/14 02:43:20;;;;;;;1999.90;999.90;;;;;;;;;;5067260;28;20040;-88
2023/12/14 02:45:46;;;;;;;1999.90;999.90;;;;;;;;;;5076700;28;20053;-88
2023/12/14 02:48:13;;;;;;;1999.90;999.90;;;;;;;;;;5074995;28;20048;-88
2023/12/14 02:50:39;;;;;;;1999.90;999.90;;;;;;;;;;5072493;28;20045;-89
2023/12/14 02:53:06;;;;;;;1999.90;999.90;;;;;;;;;;5054476;28;20093;-89
2023/12/14 02:55:32;;;;;;;1999.90;999.90;;;;;;;;;;5062145;28;20045;-89
2023/12/14 02:58:00;;;;;;;1999.90;999.90;;;;;;;;;;5065295;28;20392;-89
2023/12/14 03:00:27;;;;;;;1999.90;999.90;;;;;;;;;;5063076;28;20044;-90
2023/12/14 03:02:53;;;;;;;1999.90;999.90;;;;;;;;;;5055728;28;20045;-90
2023/12/14 03:05:20;;;;;;;1999.90;999.90;;;;;;;;;;5060154;28;20044;-88
2023/12/14 03:07:46;;;;;;;1999.90;999.90;;;;;;;;;;5071068;28;20139;-90
2023/12/14 03:10:31;;;;;;;1999.90;999.90;;;;;;;;;;5075368;28;20051;-88
2023/12/14 03:12:58;;;;;;;1999.90;999.90;;;;;;;;;;5067184;28;20119;-90
2023/12/14 03:15:26;;;;;;;1999.90;999.90;;;;;;;;;;5068278;28;20497;-89
2023/12/14 03:17:52;;;;;;;1999.90;999.90;;;;;;;;;;5078815;28;20087;-88
2023/12/14 03:20:19;;;;;;;1999.90;999.90;;;;;;;;;;5078172;28;20052;-89
2023/12/14 03:22:45;;;;;;;1999.90;999.90;;;;;;;;;;5085390;28;20076;-88
2023/12/14 03:25:12;;;;;;;1999.90;999.90;;;;;;;;;;5085551;28;20051;-89
2023/12/14 03:27:38;;;;;;;1999.90;999.90;;;;;;;;;;5078666;28;20131;-88
2023/12/14 03:30:09;;;;;;;1999.90;999.90;;;;;;;;;;5070816;28;20051;-88
2023/12/14 03:32:37;;;;;;;1999.90;999.90;;;;;;;;;;5078381;28;20051;-88
2023/12/14 03:35:05;;;;;;;1999.90;999.90;;;;;;;;;;5071943;28;20051;-91
2023/12/14 03:37:31;;;;;;;1999.90;999.90;;;;;;;;;;5057401;28;20488;-89
2023/12/14 03:39:58;;;;;;;1999.90;999.90;;;;;;;;;;5056290;28;20049;-89
2023/12/14 03:42:24;;;;;;;1999.90;999.90;;;;;;;;;;5075156;28;20049;-91
2023/12/14 03:44:51;;;;;;;1999.90;999.90;;;;;;;;;;5066671;28;20059;-88
2023/12/14 03:47:17;;;;;;;1999.90;999.90;;;;;;;;;;5053970;28;20098;-88
2023/12/14 03:49:45;;;;;;;1999.90;999.90;;;;;;;;;;5067660;28;20049;-89
2023/12/14 03:52:11;;;;;;;1999.90;999.90;;;;;;;;;;5061274;28;20057;-89
2023/12/14 03:54:38;;;;;;;1999.90;999.90;;;;;;;;;;5089603;28;20106;-88
2023/12/14 03:57:05;;;;;;;1999.90;999.90;;;;;;;;;;5070233;28;20052;-89
2023/12/14 03:59:32;;;;;;;1999.90;999.90;;;;;;;;;;5061995;28;20059;-88
2023/12/14 04:01:58;;;;;;;1999.90;999.90;;;;;;;;;;5065136;28;20052;-89
2023/12/14 04:04:25;;;;;;;1999.90;999.90;;;;;;;;;;5077498;28;20048;-88
2023/12/14 04:06:53;;;;;;;1999.90;999.90;;;;;;;;;;5071407;28;20055;-89
2023/12/14 04:09:19;;;;;;;1999.90;999.90;;;;;;;;;;5077695;28;20047;-90
2023/12/14 04:11:46;;;;;;;1999.90;999.90;;;;;;;;;;5061775;28;20045;-90
2023/12/14 04:14:12;;;;;;;1999.90;999.90;;;;;;;;;;5062152;28;20052;-89
2023/12/14 04:16:39;;;;;;;1999.90;999.90;;;;;;;;;;5058778;28;20045;-89
2023/12/14 04:19:09;;;;;;;1999.90;999.90;;;;;;;;;;5074943;28;20047;-89
2023/12/14 04:21:36;;;;;;;1999.90;999.90;;;;;;;;;;5063834;28;20459;-90
2023/12/14 04:24:04;;;;;;;1999.90;999.90;;;;;;;;;;5061249;28;20049;-89
2023/12/14 04:26:31;;;;;;;1999.90;999.90;;;;;;;;;;5068518;28;20044;-90
2023/12/14 04:28:57;;;;;;;1999.90;999.90;;;;;;;;;;5065593;28;20045;-90
2023/12/14 04:31:24;;;;;;;1999.90;999.90;;;;;;;;;;5065274;28;20047;-88
2023/12/14 04:33:50;;;;;;;1999.90;999.90;;;;;;;;;;5070816;28;20052;-89
2023/12/14 04:36:17;;;;;;;1999.90;999.90;;;;;;;;;;5060378;28;20045;-90
2023/12/14 04:38:45;;;;;;;1999.90;999.90;;;;;;;;;;5058704;28;20493;-88
2023/12/14 04:41:13;;;;;;;1999.90;999.90;;;;;;;;;;5060130;28;20494;-89
2023/12/14 04:43:40;;;;;;;1999.90;999.90;;;;;;;;;;5069263;28;20397;-89
2023/12/14 04:46:06;;;;;;;1999.90;999.90;;;;;;;;;;5076657;28;20048;-90
2023/12/14 04:48:33;;;;;;;1999.90;999.90;;;;;;;;;;5074803;28;20048;-89
2023/12/14 04:51:00;;;;;;;1999.90;999.90;;;;;;;;;;5065035;28;20496;-89
2023/12/14 04:53:26;;;;;;;1999.90;999.90;;;;;;;;;;5062457;28;20131;-89
2023/12/14 04:55:53;;;;;;;1999.90;999.90;;;;;;;;;;5059461;28;20048;-89
2023/12/14 04:58:21;;;;;;;1999.90;999.90;;;;;;;;;;5062423;28;20044;-89
2023/12/14 05:00:47;;;;;;;1999.90;999.90;;;;;;;;;;5068500;28;20135;-90
2023/12/14 05:03:14;;;;;;;1999.90;999.90;;;;;;;;;;5063091;28;20133;-89
2023/12/14 05:05:40;;;;;;;1999.90;999.90;;;;;;;;;;5075157;28;20547;-88
2023/12/14 05:08:07;;;;;;;1999.90;999.90;;;;;;;;;;5056884;28;20522;-89
2023/12/14 05:10:34;;;;;;;1999.90;999.90;;;;;;;;;;5083539;28;20476;-89
2023/12/14 05:13:00;;;;;;;1999.90;999.90;;;;;;;;;;5076134;28;20119;-89
2023/12/14 05:15:28;;;;;;;1999.90;999.90;;;;;;;;;;5067128;28;20067;-90
2023/12/14 05:17:54;;;;;;;1999.90;999.90;;;;;;;;;;5064427;28;20041;-89
2023/12/14 05:20:21;;;;;;;1999.90;999.90;;;;;;;;;;5066490;28;20048;-90
2023/12/14 05:22:47;;;;;;;1999.90;999.90;;;;;;;;;;5069126;28;20044;-88
2023/12/14 05:25:14;;;;;;;1999.90;999.90;;;;;;;;;;5062625;28;20374;-89
2023/12/14 05:27:41;;;;;;;1999.90;999.90;;;;;;;;;;5057810;28;20049;-89
2023/12/14 05:30:08;;;;;;;1999.90;999.90;;;;;;;;;;5066904;28;20055;-87
2023/12/14 05:32:36;;;;;;;1999.90;999.90;;;;;;;;;;5063521;28;20515;-89
2023/12/14 05:35:03;;;;;;;1999.90;999.90;;;;;;;;;;5083280;28;20053;-87
2023/12/14 05:37:29;;;;;;;1999.90;999.90;;;;;;;;;;5071720;28;20048;-88
2023/12/14 05:39:56;;;;;;;1999.90;999.90;;;;;;;;;;5085991;28;20055;-88
2023/12/14 05:42:22;;;;;;;1999.90;999.90;;;;;;;;;;5069227;28;20064;-90
2023/12/14 05:44:49;;;;;;;1999.90;999.90;;;;;;;;;;5083699;28;20050;-87
2023/12/14 05:47:15;;;;;;;1999.90;999.90;;;;;;;;;;5080406;28;20500;-88
2023/12/14 05:49:44;;;;;;;1999.90;999.90;;;;;;;;;;5066553;28;20055;-89
2023/12/14 05:52:10;;;;;;;1999.90;999.90;;;;;;;;;;5066621;28;20040;-88
2023/12/14 05:54:37;;;;;;;1999.90;999.90;;;;;;;;;;5059527;28;20080;-87
2023/12/14 05:57:04;;;;;;;1999.90;999.90;;;;;;;;;;5075796;28;20481;-88
2023/12/14 05:59:30;;;;;;;1999.90;999.90;;;;;;;;;;5079366;28;20041;-87
2023/12/14 06:01:58;;;;;;;1999.90;999.90;;;;;;;;;;5074091;28;20060;-87
2023/12/14 06:04:25;;;;;;;1999.90;999.90;;;;;;;;;;5060183;28;20103;-89
2023/12/14 06:06:53;;;;;;;1999.90;999.90;;;;;;;;;;5067786;28;20056;-88
2023/12/14 06:09:38;;;;;;;1999.90;999.90;;;;;;;;;;5056109;28;20131;-88
2023/12/14 06:12:05;;;;;;;1999.90;999.90;;;;;;;;;;5064969;28;20048;-88
2023/12/14 06:14:32;;;;;;;1999.90;999.90;;;;;;;;;;5071305;28;20090;-87
2023/12/14 06:16:59;;;;;;;1999.90;999.90;;;;;;;;;;5071658;28;20507;-88
2023/12/14 06:19:25;;;;;;;1999.90;999.90;;;;;;;;;;5073306;28;20050;-88
2023/12/14 06:21:53;;;;;;;1999.90;999.90;;;;;;;;;;5088137;28;20488;-88
2023/12/14 06:24:20;;;;;;;1999.90;999.90;;;;;;;;;;5055023;28;20048;-87
2023/12/14 06:26:47;;;;;;;1999.90;999.90;;;;;;;;;;5061167;28;20049;-86
2023/12/14 06:29:14;;;;;;;1999.90;999.90;;;;;;;;;;5079665;28;20140;-88
2023/12/14 06:31:40;;;;;;;1999.90;999.90;;;;;;;;;;5064129;28;20114;-87
2023/12/14 06:34:07;;;;;;;1999.90;999.90;;;;;;;;;;5058946;28;20075;-88
2023/12/14 06:36:34;;;;;;;1999.90;999.90;;;;;;;;;;5070293;28;20099;-88
2023/12/14 06:39:03;;;;;;;1999.90;999.90;;;;;;;;;;5061424;28;20048;-88
2023/12/14 06:41:57;;;;;;;1999.90;999.90;;;;;;;;;;5056617;28;20049;-87
2023/12/14 06:44:25;;;;;;;1999.90;999.90;;;;;;;;;;5064233;28;20055;-89
2023/12/14 06:46:51;;;;;;;1999.90;999.90;;;;;;;;;;5056299;28;20140;-89
2023/12/14 06:49:18;;;;;;;1999.90;999.90;;;;;;;;;;5063152;28;20419;-87
2023/12/14 06:51:44;;;;;;;1999.90;999.90;;;;;;;;;;5065752;28;20047;-89
2023/12/14 06:54:12;;;;;;;1999.90;999.90;;;;;;;;;;5072815;28;20064;-88
2023/12/14 06:56:39;;;;;;;1999.90;999.90;;;;;;;;;;5059778;28;20146;-87
2023/12/14 06:59:05;;;;;;;1999.90;999.90;;;;;;;;;;5078008;28;20041;-89
2023/12/14 07:01:32;;;;;;;1999.90;999.90;;;;;;;;;;5056580;28;20504;-87
2023/12/14 07:03:58;;;;;;;1999.90;999.90;;;;;;;;;;5058940;28;20052;-87
2023/12/14 07:06:25;;;;;;;1999.90;999.90;;;;;;;;;;5071024;28;20048;-87
2023/12/14 07:08:51;;;;;;;1999.90;999.90;;;;;;;;;;5073340;28;20045;-88
2023/12/14 07:11:19;;;;;;;1999.90;999.90;;;;;;;;;;5060511;28;20156;-87
2023/12/14 07:13:46;;;;;;;1999.90;999.90;;;;;;;;;;5070169;28;20485;-90
2023/12/14 07:16:13;;;;;;;1999.90;999.90;;;;;;;;;;5064154;28;20052;-88
2023/12/14 07:18:41;;;;;;;1999.90;999.90;;;;;;;;;;5068258;28;20036;-87
2023/12/14 07:21:08;;;;;;;1999.90;999.90;;;;;;;;;;5066791;28;20041;-87
2023/12/14 07:23:36;;;;;;;1999.90;999.90;;;;;;;;;;5071857;28;20051;-88
2023/12/14 07:26:03;;;;;;;1999.90;999.90;;;;;;;;;;5065113;28;20059;-88
2023/12/14 07:28:31;;;;;;;1999.90;999.90;;;;;;;;;;5065239;28;20052;-88
2023/12/14 07:30:57;;;;;;;1999.90;999.90;;;;;;;;;;5054512;28;20489;-89
2023/12/14 07:33:24;;;;;;;1999.90;999.90;;;;;;;;;;5057989;28;20408;-86
2023/12/14 07:35:50;;;;;;;1999.90;999.90;;;;;;;;;;5061631;28;20052;-86
2023/12/14 07:38:17;;;;;;;1999.90;999.90;;;;;;;;;;5060876;28;20417;-87
2023/12/14 07:40:45;;;;;;;1999.90;999.90;;;;;;;;;;5060782;28;20048;-87
2023/12/14 07:43:11;;;;;;;1999.90;999.90;;;;;;;;;;5065038;28;20142;-86
2023/12/14 07:45:39;;;;;;;1999.90;999.90;;;;;;;;;;5053478;28;20055;-87
2023/12/14 07:48:06;;;;;;;1999.90;999.90;;;;;;;;;;5063038;28;20054;-86
2023/12/14 07:50:32;;;;;;;1999.90;999.90;;;;;;;;;;5067696;28;20049;-86
2023/12/14 07:52:59;;;;;;;1999.90;999.90;;;;;;;;;;5062725;28;20418;-87
2023/12/14 07:55:25;;;;;;;1999.90;999.90;;;;;;;;;;5055403;28;20051;-86
2023/12/14 07:57:52;;;;;;;1999.90;999.90;;;;;;;;;;5061881;28;20045;-86
2023/12/14 08:00:19;;;;;;;1999.90;999.90;;;;;;;;;;5058649;28;20051;-87
2023/12/14 08:33:36;;;;;;;1999.90;999.90;;;;;;;;;;5077668;27;1273692;-88
2023/12/14 08:36:02;;;;;;;1999.90;999.90;;;;;;;;;;5097341;28;20059;-89
2023/12/14 08:38:29;;;;;;;1999.90;999.90;;;;;;;;;;5104189;28;20044;-88
2023/12/14 08:40:55;;;;;;;1999.90;999.90;;;;;;;;;;5103097;28;20047;-87
2023/12/14 08:43:22;;;;;;;1999.90;999.90;;;;;;;;;;5102416;28;20497;-89
2023/12/14 08:45:49;;;;;;;1999.90;999.90;;;;;;;;;;5103979;28;20564;-88
2023/12/14 08:48:15;;;;;;;1999.90;999.90;;;;;;;;;;5103928;28;20062;-87
2023/12/14 08:50:43;;;;;;;1999.90;999.90;;;;;;;;;;5105151;28;20051;-87
2023/12/14 08:53:11;;;;;;;1999.90;999.90;;;;;;;;;;5103452;28;20079;-87
2023/12/14 08:55:37;;;;;;;1999.90;999.90;;;;;;;;;;5101830;28;20072;-88
2023/12/14 08:58:04;;;;;;;1999.90;999.90;;;;;;;;;;5106483;28;20047;-87
2023/12/14 09:00:30;;;;;;;1999.90;999.90;;;;;;;;;;5105455;28;20058;-86
2023/12/14 09:02:57;;;;;;;1999.90;999.90;;;;;;;;;;5105027;28;20048;-86
2023/12/14 09:05:25;;;;;;;1999.90;999.90;;;;;;;;;;5106453;28;20040;-86
2023/12/14 09:07:56;;;;;;;1999.90;999.90;;;;;;;;;;5105049;28;20051;-88
2023/12/14 09:10:22;;;;;;;1999.90;999.90;;;;;;;;;;5102344;28;20064;-88
2023/12/14 09:12:49;;;;;;;1999.90;999.90;;;;;;;;;;5101526;28;20048;-87
2023/12/14 09:15:15;;;;;;;1999.90;999.90;;;;;;;;;;5105417;28;20058;-87
2023/12/14 09:17:43;;;;;;;1999.90;999.90;;;;;;;;;;5104676;28;20141;-88
2023/12/14 09:20:11;;;;;;;1999.90;999.90;;;;;;;;;;5104462;28;20044;-88
2023/12/14 09:22:42;;;;;;;1999.90;999.90;;;;;;;;;;5106006;28;20058;-88
2023/12/14 09:25:10;;;;;;;1999.90;999.90;;;;;;;;;;5105669;28;20137;-89
2023/12/14 09:27:37;;;;;;;1999.90;999.90;;;;;;;;;;5102150;28;20048;-87
2023/12/14 09:30:05;;;;;;;1999.90;999.90;;;;;;;;;;5103630;28;20099;-90
2023/12/14 09:32:32;;;;;;;1999.90;999.90;;;;;;;;;;5104070;28;20050;-87
2023/12/14 09:34:58;;;;;;;1999.90;999.90;;;;;;;;;;5088436;28;20063;-88
2023/12/14 09:37:25;;;;;;;1999.90;999.90;;;;;;;;;;5087710;28;20127;-87
2023/12/14 09:39:52;;;;;;;1999.90;999.90;;;;;;;;;;5090610;28;20119;-87
2023/12/14 09:42:21;;;;;;;1999.90;999.90;;;;;;;;;;5091547;28;20485;-87
2023/12/14 09:44:48;;;;;;;1999.90;999.90;;;;;;;;;;5088858;28;20062;-88
2023/12/14 09:47:15;;;;;;;1999.90;999.90;;;;;;;;;;5091418;28;20129;-89
2023/12/14 09:49:44;;;;;;;1999.90;999.90;;;;;;;;;;5090659;28;20059;-87
2023/12/14 09:52:11;;;;;;;1999.90;999.90;;;;;;;;;;5089524;28;20049;-87
2023/12/14 09:54:37;;;;;;;1999.90;999.90;;;;;;;;;;5090453;28;20051;-89
2023/12/14 09:57:04;;;;;;;1999.90;999.90;;;;;;;;;;5094723;28;20050;-88
2023/12/14 09:59:32;;;;;;;1999.90;999.90;;;;;;;;;;5087371;28;20052;-89
2023/12/14 10:02:10;;;;;;;1999.90;999.90;;;;;;;;;;5090994;28;20040;-88
2023/12/14 10:04:36;;;;;;;1999.90;999.90;;;;;;;;;;5089703;28;20044;-89
2023/12/14 10:07:06;;;;;;;1999.90;999.90;;;;;;;;;;5089102;28;20048;-87
2023/12/14 10:09:33;;;;;;;1999.90;999.90;;;;;;;;;;5089050;28;20062;-89
2023/12/14 10:12:05;;;;;;;1999.90;999.90;;;;;;;;;;5090737;28;20048;-89
2023/12/14 10:14:33;;;;;;;1999.90;999.90;;;;;;;;;;5090630;28;20055;-87
2023/12/14 10:17:00;;;;;;;1999.90;999.90;;;;;;;;;;5084637;28;20507;-88
2023/12/14 10:19:27;;;;;;;1999.90;999.90;;;;;;;;;;5091779;28;20048;-89
2023/12/14 10:21:53;;;;;;;1999.90;999.90;;;;;;;;;;5090926;28;20473;-87
2023/12/14 10:24:20;;;;;;;1999.90;999.90;;;;;;;;;;5092179;28;20044;-87
2023/12/14 10:26:47;;;;;;;1999.90;999.90;;;;;;;;;;5090971;28;20683;-89
2023/12/14 10:29:14;;;;;;;1999.90;999.90;;;;;;;;;;5090836;28;20039;-87
2023/12/14 10:31:43;;;;;;;1999.90;999.90;;;;;;;;;;5089592;28;20044;-88
2023/12/14 10:34:12;;;;;;;1999.90;999.90;;;;;;;;;;5091263;28;20409;-89
2023/12/14 10:36:38;;;;;;;1999.90;999.90;;;;;;;;;;5090887;28;20170;-89
2023/12/14 10:39:05;;;;;;;1999.90;999.90;;;;;;;;;;5090571;28;20048;-87
2023/12/14 10:41:32;;;;;;;1999.90;999.90;;;;;;;;;;5090402;28;20036;-88
2023/12/14 10:44:01;;;;;;;1999.90;999.90;;;;;;;;;;5090431;28;20044;-89
2023/12/14 10:46:28;;;;;;;1999.90;999.90;;;;;;;;;;5085566;28;20061;-88
2023/12/14 10:48:55;;;;;;;1999.90;999.90;;;;;;;;;;5089447;28;20048;-90
2023/12/14 10:51:23;;;;;;;1999.90;999.90;;;;;;;;;;5091002;28;20048;-88
2023/12/14 10:53:51;;;;;;;1999.90;999.90;;;;;;;;;;5089233;28;20044;-88
2023/12/14 10:56:18;;;;;;;1999.90;999.90;;;;;;;;;;5088994;28;20044;-90
2023/12/14 10:58:49;;;;;;;1999.90;999.90;;;;;;;;;;5088425;28;20043;-87
2023/12/14 11:01:17;;;;;;;1999.90;999.90;;;;;;;;;;5089558;28;20072;-88
2023/12/14 11:03:44;;;;;;;1999.90;999.90;;;;;;;;;;5089218;28;20055;-88
2023/12/14 11:06:42;;;;;;;1999.90;999.90;;;;;;;;;;5090679;28;20048;-88
2023/12/14 11:09:12;;;;;;;1999.90;999.90;;;;;;;;;;5030987;28;20052;-89
2023/12/14 11:11:43;;;;;;;1999.90;999.90;;;;;;;;;;5088489;28;20048;-89
2023/12/14 11:14:11;;;;;;;1999.90;999.90;;;;;;;;;;5087831;28;20071;-92
2023/12/14 11:16:44;;;;;;;1999.90;999.90;;;;;;;;;;5091005;28;20056;-90
2023/12/14 11:19:29;;;;;;;1999.90;999.90;;;;;;;;;;5090281;28;20044;-85
2023/12/14 11:22:18;;;;;;;1999.90;999.90;;;;;;;;;;5089548;28;20052;-85
2023/12/14 11:24:52;;;;;;;1999.90;999.90;;;;;;;;;;5086714;28;20036;-85
2023/12/14 11:27:21;;;;;;;1999.90;999.90;;;;;;;;;;5089979;28;20382;-85
2023/12/14 11:29:49;;;;;;;1999.90;999.90;;;;;;;;;;5088772;28;20067;-85
2023/12/14 11:32:15;;;;;;;1999.90;999.90;;;;;;;;;;5087257;28;20043;-84
2023/12/14 11:34:42;;;;;;;1999.90;999.90;;;;;;;;;;5088440;28;20048;-85
2023/12/14 11:37:08;;;;;;;1999.90;999.90;;;;;;;;;;5088916;28;20397;-86
2023/12/14 11:39:36;;;;;;;1999.90;999.90;;;;;;;;;;5090360;28;20480;-87
2023/12/14 11:42:04;;;;;;;1999.90;999.90;;;;;;;;;;5088824;28;20062;-86
2023/12/14 11:44:31;;;;;;;1999.90;999.90;;;;;;;;;;5086919;28;20044;-86
2023/12/14 11:46:58;;;;;;;1999.90;999.90;;;;;;;;;;5088610;28;20075;-86
2023/12/14 11:49:26;;;;;;;1999.90;999.90;;;;;;;;;;5088325;28;20066;-86
2023/12/14 11:51:53;;;;;;;1999.90;999.90;;;;;;;;;;5088245;28;20048;-86
2023/12/14 11:54:19;;;;;;;1999.90;999.90;;;;;;;;;;5088569;28;20048;-86
2023/12/14 11:56:48;;;;;;;1999.90;999.90;;;;;;;;;;5088721;28;20052;-86
2023/12/14 11:59:17;;;;;;;1999.90;999.90;;;;;;;;;;5089057;28;20485;-86
2023/12/14 12:01:55;;;;;;;1999.90;999.90;;;;;;;;;;5085311;28;20071;-86
2023/12/14 12:04:21;;;;;;;1999.90;999.90;;;;;;;;;;5088719;28;20052;-85
2023/12/14 12:06:48;;;;;;;1999.90;999.90;;;;;;;;;;5088373;28;20081;-86
2023/12/14 12:09:17;;;;;;;1999.90;999.90;;;;;;;;;;5087227;28;20052;-86
2023/12/14 12:11:43;;;;;;;1999.90;999.90;;;;;;;;;;5086677;28;20075;-87
2023/12/14 12:14:11;;;;;;;1999.90;999.90;;;;;;;;;;5088332;28;20056;-86
2023/12/14 12:16:38;;;;;;;1999.90;999.90;;;;;;;;;;5086290;28;20497;-86
2023/12/14 12:19:04;;;;;;;1999.90;999.90;;;;;;;;;;5089638;28;20040;-86
2023/12/14 12:21:31;;;;;;;1999.90;999.90;;;;;;;;;;5086355;28;20040;-86
2023/12/14 12:23:57;;;;;;;1999.90;999.90;;;;;;;;;;5085742;28;20048;-85
2023/12/14 12:26:24;;;;;;;1999.90;999.90;;;;;;;;;;5089074;28;20052;-86
2023/12/14 12:28:50;;;;;;;1999.90;999.90;;;;;;;;;;5087334;28;20044;-88
2023/12/14 12:31:18;;;;;;;1999.90;999.90;;;;;;;;;;5084395;28;20477;-86
2023/12/14 12:33:45;;;;;;;1999.90;999.90;;;;;;;;;;5088537;28;20164;-86
2023/12/14 12:36:11;;;;;;;1999.90;999.90;;;;;;;;;;5088877;28;20063;-87
2023/12/14 12:38:40;;;;;;;1999.90;999.90;;;;;;;;;;5085772;28;20045;-84
2023/12/14 12:41:06;;;;;;;1999.90;999.90;;;;;;;;;;5085684;28;20048;-86
2023/12/14 12:43:33;;;;;;;1999.90;999.90;;;;;;;;;;5088874;28;20052;-86
2023/12/14 12:45:59;;;;;;;1999.90;999.90;;;;;;;;;;5087573;28;20071;-87
2023/12/14 12:48:27;;;;;;;1999.90;999.90;;;;;;;;;;5088200;28;20052;-85
2023/12/14 12:50:54;;;;;;;1999.90;999.90;;;;;;;;;;5088391;28;20085;-87
2023/12/14 12:53:21;;;;;;;1999.90;999.90;;;;;;;;;;5087067;28;20052;-85
2023/12/14 12:55:47;;;;;;;1999.90;999.90;;;;;;;;;;5083666;28;20048;-86
2023/12/14 12:58:14;;;;;;;1999.90;999.90;;;;;;;;;;5088930;28;20131;-85
2023/12/14 13:00:41;;;;;;;1999.90;999.90;;;;;;;;;;5087025;28;20045;-85
2023/12/14 13:03:07;;;;;;;1999.90;999.90;;;;;;;;;;5087696;28;20056;-85
2023/12/14 13:05:35;;;;;;;1999.90;999.90;;;;;;;;;;5084702;28;20395;-86
2023/12/14 13:08:02;;;;;;;1999.90;999.90;;;;;;;;;;5085728;28;20051;-86
2023/12/14 13:10:28;;;;;;;1999.90;999.90;;;;;;;;;;5089145;28;20047;-86
2023/12/14 13:12:56;;;;;;;1999.90;999.90;;;;;;;;;;5089063;28;20045;-86
2023/12/14 13:15:24;;;;;;;1999.90;999.90;;;;;;;;;;5089455;28;20055;-86
2023/12/14 13:17:50;;;;;;;1999.90;999.90;;;;;;;;;;5087426;28;20048;-86
2023/12/14 13:20:18;;;;;;;1999.90;999.90;;;;;;;;;;5088134;28;20047;-86
2023/12/14 13:22:46;;;;;;;1999.90;999.90;;;;;;;;;;5090778;28;20097;-86
2023/12/14 13:25:13;;;;;;;1999.90;999.90;;;;;;;;;;5091292;28;20044;-86
2023/12/14 13:27:40;;;;;;;1999.90;999.90;;;;;;;;;;5084970;28;20458;-86
2023/12/14 13:30:08;;;;;;;1999.90;999.90;;;;;;;;;;5091370;28;20445;-85
2023/12/14 13:32:34;;;;;;;1999.90;999.90;;;;;;;;;;5090965;28;20052;-86
2023/12/14 13:35:01;;;;;;;1999.90;999.90;;;;;;;;;;5089613;28;20135;-85
2023/12/14 13:37:28;;;;;;;1999.90;999.90;;;;;;;;;;5088546;28;20093;-85
2023/12/14 13:39:56;;;;;;;1999.90;999.90;;;;;;;;;;5091574;28;20458;-86
2023/12/14 13:42:22;;;;;;;1999.90;999.90;;;;;;;;;;5091144;28;20482;-84
2023/12/14 13:44:49;;;;;;;1999.90;999.90;;;;;;;;;;5089608;28;20036;-84
2023/12/14 13:47:16;;;;;;;1999.90;999.90;;;;;;;;;;5096245;28;20134;-85
2023/12/14 13:49:43;;;;;;;1999.90;999.90;;;;;;;;;;5096786;28;20050;-87
2023/12/14 13:52:09;;;;;;;1999.90;999.90;;;;;;;;;;5086483;28;20409;-86
2023/12/14 13:54:36;;;;;;;1999.90;999.90;;;;;;;;;;5091392;28;20040;-87
2023/12/14 13:57:04;;;;;;;1999.90;999.90;;;;;;;;;;5089622;28;20097;-86
2023/12/14 13:59:31;;;;;;;1999.90;999.90;;;;;;;;;;5092328;28;20040;-86
2023/12/14 14:01:57;;;;;;;1999.90;999.90;;;;;;;;;;5090960;28;20509;-87
2023/12/14 14:04:24;;;;;;;1999.90;999.90;;;;;;;;;;5086523;28;20099;-85
2023/12/14 14:06:51;;;;;;;1999.90;999.90;;;;;;;;;;5091378;28;20055;-85
2023/12/14 14:09:17;;;;;;;1999.90;999.90;;;;;;;;;;5091881;28;20052;-86
2023/12/14 14:11:47;;;;;;;1999.90;999.90;;;;;;;;;;5090680;28;20048;-84
2023/12/14 14:14:15;;;;;;;1999.90;999.90;;;;;;;;;;5091437;28;20488;-89